N6137Q KSAN-KLAX
Flight info
| Callsign | N6137Q |
|---|---|
| Flight time | 0h 58m |
| Altitude | 3000 |
| Route | OCN V23 SLI |
| Aircraft | C172/L-SFG/C |
Departure
| Time | 2026-04-25 03:46 |
|---|---|
| Airport | San Diego International Airport (KSAN) |
Arrival
| Time | 2026-04-25 04:45 |
|---|---|
| Airport | Los Angeles International Airport (KLAX) |
| Time | Latitude | Longitude | Altitude | Speed | Heading |
|---|---|---|---|---|---|
| 2026-04-25 02:46 | 32.73322 | -117.17757 | 22 ft | 0 kts | 17° |
| 2026-04-25 03:40 | 32.73323 | -117.17757 | 22 ft | 1 kts | 12° |
| 2026-04-25 03:40 | 32.73334 | -117.17763 | 22 ft | 2 kts | 285° |
| 2026-04-25 03:40 | 32.73341 | -117.17799 | 22 ft | 7 kts | 282° |
| 2026-04-25 03:40 | 32.73360 | -117.17873 | 21 ft | 11 kts | 269° |
| 2026-04-25 03:41 | 32.73344 | -117.17951 | 19 ft | 7 kts | 223° |
| 2026-04-25 03:41 | 32.73285 | -117.17976 | 18 ft | 9 kts | 197° |
| 2026-04-25 03:41 | 32.73227 | -117.17964 | 18 ft | 8 kts | 115° |
| 2026-04-25 03:41 | 32.73210 | -117.17894 | 18 ft | 9 kts | 105° |
| 2026-04-25 03:42 | 32.73188 | -117.17801 | 19 ft | 12 kts | 107° |
| 2026-04-25 03:42 | 32.73164 | -117.17700 | 20 ft | 12 kts | 105° |
| 2026-04-25 03:42 | 32.73137 | -117.17600 | 22 ft | 12 kts | 118° |
| 2026-04-25 03:42 | 32.73111 | -117.17570 | 22 ft | 1 kts | 137° |
| 2026-04-25 03:43 | 32.73110 | -117.17569 | 22 ft | 0 kts | 140° |
| 2026-04-25 03:44 | 32.73110 | -117.17568 | 22 ft | 0 kts | 140° |
| 2026-04-25 03:45 | 32.73097 | -117.17558 | 22 ft | 4 kts | 147° |
| 2026-04-25 03:45 | 32.73053 | -117.17529 | 21 ft | 10 kts | 179° |
| 2026-04-25 03:45 | 32.73022 | -117.17590 | 21 ft | 11 kts | 283° |
| 2026-04-25 03:45 | 32.73071 | -117.17791 | 19 ft | 48 kts | 285° |
| 2026-04-25 03:46 | 32.73201 | -117.18298 | 83 ft | 73 kts | 282° |
| 2026-04-25 03:46 | 32.73363 | -117.18873 | 264 ft | 74 kts | 286° |
| 2026-04-25 03:46 | 32.73553 | -117.19437 | 468 ft | 73 kts | 292° |
| 2026-04-25 03:46 | 32.73914 | -117.19863 | 661 ft | 76 kts | 321° |
| 2026-04-25 03:47 | 32.74302 | -117.20268 | 858 ft | 72 kts | 306° |
| 2026-04-25 03:47 | 32.74705 | -117.20641 | 1047 ft | 74 kts | 320° |
| 2026-04-25 03:47 | 32.75142 | -117.20980 | 1219 ft | 75 kts | 322° |
| 2026-04-25 03:47 | 32.75577 | -117.21313 | 1386 ft | 75 kts | 321° |
| 2026-04-25 03:48 | 32.76025 | -117.21654 | 1564 ft | 76 kts | 321° |
| 2026-04-25 03:48 | 32.76468 | -117.21988 | 1738 ft | 76 kts | 322° |
| 2026-04-25 03:48 | 32.76916 | -117.22327 | 1912 ft | 76 kts | 319° |
| 2026-04-25 03:48 | 32.77356 | -117.22660 | 2082 ft | 75 kts | 321° |
| 2026-04-25 03:49 | 32.77802 | -117.22997 | 2257 ft | 75 kts | 322° |
| 2026-04-25 03:49 | 32.78236 | -117.23325 | 2430 ft | 74 kts | 321° |
| 2026-04-25 03:49 | 32.78669 | -117.23656 | 2604 ft | 73 kts | 321° |
| 2026-04-25 03:49 | 32.79093 | -117.23980 | 2776 ft | 72 kts | 321° |
| 2026-04-25 03:50 | 32.79508 | -117.24287 | 2944 ft | 70 kts | 321° |
| 2026-04-25 03:50 | 32.79919 | -117.24596 | 3116 ft | 69 kts | 320° |
| 2026-04-25 03:50 | 32.80322 | -117.24893 | 3288 ft | 67 kts | 320° |
| 2026-04-25 03:50 | 32.80714 | -117.25178 | 3445 ft | 67 kts | 322° |
| 2026-04-25 03:51 | 32.81123 | -117.25480 | 3573 ft | 71 kts | 322° |
| 2026-04-25 03:51 | 32.81551 | -117.25804 | 3704 ft | 75 kts | 322° |
| 2026-04-25 03:51 | 32.82003 | -117.26148 | 3831 ft | 78 kts | 323° |
| 2026-04-25 03:51 | 32.82464 | -117.26504 | 3971 ft | 79 kts | 321° |
| 2026-04-25 03:52 | 32.82932 | -117.26852 | 4126 ft | 79 kts | 322° |
| 2026-04-25 03:52 | 32.83387 | -117.27187 | 4296 ft | 76 kts | 321° |
| 2026-04-25 03:52 | 32.83856 | -117.27467 | 4462 ft | 77 kts | 344° |
| 2026-04-25 03:52 | 32.84397 | -117.27408 | 4620 ft | 79 kts | 2° |
| 2026-04-25 03:53 | 32.84942 | -117.27328 | 4769 ft | 78 kts | 354° |
| 2026-04-25 03:53 | 32.85473 | -117.27334 | 4915 ft | 76 kts | 347° |
| 2026-04-25 03:53 | 32.85999 | -117.27404 | 5062 ft | 74 kts | 341° |
| 2026-04-25 03:53 | 32.86504 | -117.27513 | 5209 ft | 73 kts | 339° |
| 2026-04-25 03:54 | 32.87004 | -117.27645 | 5341 ft | 74 kts | 336° |
| 2026-04-25 03:54 | 32.87511 | -117.27800 | 5467 ft | 75 kts | 333° |
| 2026-04-25 03:54 | 32.88019 | -117.27978 | 5591 ft | 77 kts | 332° |
| 2026-04-25 03:54 | 32.88535 | -117.28165 | 5714 ft | 78 kts | 333° |
| 2026-04-25 03:55 | 32.89066 | -117.28354 | 5840 ft | 79 kts | 333° |
| 2026-04-25 03:55 | 32.89595 | -117.28545 | 5938 ft | 83 kts | 333° |
| 2026-04-25 03:55 | 32.90192 | -117.28768 | 5957 ft | 95 kts | 335° |
| 2026-04-25 03:55 | 32.90859 | -117.29009 | 5958 ft | 103 kts | 337° |
| 2026-04-25 03:56 | 32.91564 | -117.29264 | 5954 ft | 106 kts | 337° |
| 2026-04-25 03:56 | 32.92278 | -117.29527 | 5951 ft | 108 kts | 336° |
| 2026-04-25 03:56 | 32.92997 | -117.29806 | 5951 ft | 109 kts | 335° |
| 2026-04-25 03:56 | 32.93729 | -117.30091 | 5952 ft | 109 kts | 335° |
| 2026-04-25 03:57 | 32.94456 | -117.30374 | 5952 ft | 110 kts | 335° |
| 2026-04-25 03:57 | 32.95190 | -117.30656 | 5952 ft | 111 kts | 335° |
| 2026-04-25 03:57 | 32.95927 | -117.30940 | 5951 ft | 111 kts | 335° |
| 2026-04-25 03:57 | 32.96675 | -117.31227 | 5950 ft | 112 kts | 335° |
| 2026-04-25 03:58 | 32.97414 | -117.31510 | 5948 ft | 111 kts | 335° |
| 2026-04-25 03:58 | 32.98158 | -117.31794 | 5948 ft | 111 kts | 336° |
| 2026-04-25 03:58 | 32.98894 | -117.32077 | 5949 ft | 111 kts | 336° |
| 2026-04-25 03:58 | 32.99635 | -117.32362 | 5948 ft | 111 kts | 336° |
| 2026-04-25 03:59 | 33.00380 | -117.32648 | 5949 ft | 111 kts | 336° |
| 2026-04-25 03:59 | 33.01122 | -117.32931 | 5948 ft | 112 kts | 336° |
| 2026-04-25 03:59 | 33.01866 | -117.33217 | 5950 ft | 112 kts | 336° |
| 2026-04-25 03:59 | 33.02615 | -117.33504 | 5949 ft | 111 kts | 335° |
| 2026-04-25 04:00 | 33.03351 | -117.33786 | 5948 ft | 111 kts | 335° |
| 2026-04-25 04:00 | 33.04087 | -117.34071 | 5947 ft | 111 kts | 336° |
| 2026-04-25 04:00 | 33.04826 | -117.34354 | 5947 ft | 111 kts | 335° |
| 2026-04-25 04:00 | 33.05571 | -117.34639 | 5947 ft | 111 kts | 335° |
| 2026-04-25 04:01 | 33.06311 | -117.34923 | 5949 ft | 111 kts | 335° |
| 2026-04-25 04:01 | 33.07052 | -117.35208 | 5948 ft | 111 kts | 335° |
| 2026-04-25 04:01 | 33.07787 | -117.35491 | 5948 ft | 111 kts | 335° |
| 2026-04-25 04:01 | 33.08526 | -117.35775 | 5946 ft | 111 kts | 336° |
| 2026-04-25 04:02 | 33.09268 | -117.36061 | 5947 ft | 111 kts | 336° |
| 2026-04-25 04:02 | 33.10011 | -117.36346 | 5946 ft | 111 kts | 336° |
| 2026-04-25 04:02 | 33.10750 | -117.36631 | 5943 ft | 111 kts | 336° |
| 2026-04-25 04:02 | 33.11498 | -117.36919 | 5942 ft | 111 kts | 336° |
| 2026-04-25 04:03 | 33.12236 | -117.37202 | 5941 ft | 111 kts | 337° |
| 2026-04-25 04:03 | 33.12974 | -117.37485 | 5941 ft | 111 kts | 336° |
| 2026-04-25 04:03 | 33.13715 | -117.37771 | 5943 ft | 111 kts | 336° |
| 2026-04-25 04:03 | 33.14463 | -117.38058 | 5943 ft | 111 kts | 336° |
| 2026-04-25 04:04 | 33.15198 | -117.38341 | 5943 ft | 111 kts | 335° |
| 2026-04-25 04:04 | 33.15945 | -117.38630 | 5944 ft | 111 kts | 336° |
| 2026-04-25 04:04 | 33.16684 | -117.38914 | 5942 ft | 111 kts | 336° |
| 2026-04-25 04:04 | 33.17422 | -117.39198 | 5941 ft | 111 kts | 336° |
| 2026-04-25 04:05 | 33.18169 | -117.39485 | 5940 ft | 111 kts | 336° |
| 2026-04-25 04:05 | 33.18916 | -117.39773 | 5939 ft | 112 kts | 337° |
| 2026-04-25 04:05 | 33.19659 | -117.40057 | 5939 ft | 111 kts | 337° |
| 2026-04-25 04:05 | 33.20394 | -117.40335 | 5936 ft | 111 kts | 337° |
| 2026-04-25 04:06 | 33.21130 | -117.40618 | 5939 ft | 111 kts | 338° |
| 2026-04-25 04:06 | 33.21882 | -117.40906 | 5941 ft | 111 kts | 337° |
| 2026-04-25 04:06 | 33.22628 | -117.41195 | 5937 ft | 112 kts | 338° |
| 2026-04-25 04:06 | 33.23371 | -117.41481 | 5936 ft | 112 kts | 337° |
| 2026-04-25 04:07 | 33.24064 | -117.41846 | 5938 ft | 108 kts | 318° |
| 2026-04-25 04:07 | 33.24620 | -117.42427 | 5970 ft | 105 kts | 313° |
| 2026-04-25 04:07 | 33.25153 | -117.43034 | 5975 ft | 105 kts | 312° |
| 2026-04-25 04:07 | 33.25684 | -117.43642 | 5978 ft | 106 kts | 312° |
| 2026-04-25 04:08 | 33.26223 | -117.44263 | 5978 ft | 107 kts | 312° |
| 2026-04-25 04:08 | 33.26759 | -117.44882 | 5974 ft | 107 kts | 312° |
| 2026-04-25 04:08 | 33.27293 | -117.45502 | 5975 ft | 107 kts | 312° |
| 2026-04-25 04:08 | 33.27832 | -117.46127 | 5974 ft | 107 kts | 313° |
| 2026-04-25 04:09 | 33.28371 | -117.46753 | 5974 ft | 107 kts | 312° |
| 2026-04-25 04:09 | 33.28908 | -117.47377 | 5974 ft | 108 kts | 313° |
| 2026-04-25 04:09 | 33.29445 | -117.48000 | 5974 ft | 108 kts | 313° |
| 2026-04-25 04:09 | 33.29991 | -117.48634 | 5975 ft | 107 kts | 312° |
| 2026-04-25 04:10 | 33.30523 | -117.49256 | 5974 ft | 108 kts | 313° |
| 2026-04-25 04:10 | 33.31067 | -117.49890 | 5973 ft | 108 kts | 313° |
| 2026-04-25 04:10 | 33.31607 | -117.50517 | 5972 ft | 107 kts | 313° |
| 2026-04-25 04:10 | 33.32140 | -117.51140 | 5973 ft | 108 kts | 313° |
| 2026-04-25 04:11 | 33.33219 | -117.52395 | 5975 ft | 108 kts | 313° |
| 2026-04-25 04:11 | 33.33759 | -117.53028 | 5968 ft | 107 kts | 312° |
| 2026-04-25 04:11 | 33.34294 | -117.53651 | 5985 ft | 107 kts | 313° |
| 2026-04-25 04:12 | 33.34832 | -117.54278 | 5976 ft | 107 kts | 312° |
| 2026-04-25 04:12 | 33.35363 | -117.54900 | 5972 ft | 107 kts | 313° |
| 2026-04-25 04:12 | 33.35903 | -117.55531 | 5968 ft | 107 kts | 313° |
| 2026-04-25 04:12 | 33.36438 | -117.56155 | 5970 ft | 107 kts | 312° |
| 2026-04-25 04:13 | 33.36971 | -117.56778 | 5966 ft | 107 kts | 312° |
| 2026-04-25 04:13 | 33.37508 | -117.57406 | 5968 ft | 108 kts | 313° |
| 2026-04-25 04:13 | 33.38048 | -117.58038 | 5968 ft | 108 kts | 313° |
| 2026-04-25 04:13 | 33.38586 | -117.58666 | 5966 ft | 108 kts | 313° |
| 2026-04-25 04:14 | 33.39122 | -117.59292 | 5964 ft | 107 kts | 312° |
| 2026-04-25 04:14 | 33.39653 | -117.59911 | 5965 ft | 107 kts | 313° |
| 2026-04-25 04:14 | 33.40195 | -117.60546 | 5966 ft | 107 kts | 313° |
| 2026-04-25 04:14 | 33.40727 | -117.61168 | 5961 ft | 107 kts | 313° |
| 2026-04-25 04:15 | 33.41268 | -117.61803 | 5959 ft | 108 kts | 313° |
| 2026-04-25 04:15 | 33.41804 | -117.62429 | 5956 ft | 108 kts | 313° |
| 2026-04-25 04:15 | 33.42343 | -117.63061 | 5959 ft | 108 kts | 313° |
| 2026-04-25 04:15 | 33.42880 | -117.63687 | 5963 ft | 108 kts | 313° |
| 2026-04-25 04:16 | 33.43420 | -117.64320 | 5961 ft | 108 kts | 313° |
| 2026-04-25 04:16 | 33.43964 | -117.64958 | 5963 ft | 109 kts | 313° |
| 2026-04-25 04:16 | 33.44506 | -117.65591 | 5966 ft | 109 kts | 313° |
| 2026-04-25 04:16 | 33.45053 | -117.66231 | 5963 ft | 109 kts | 313° |
| 2026-04-25 04:17 | 33.45593 | -117.66864 | 5961 ft | 108 kts | 313° |
| 2026-04-25 04:17 | 33.46130 | -117.67494 | 5961 ft | 108 kts | 313° |
| 2026-04-25 04:17 | 33.46674 | -117.68132 | 5964 ft | 108 kts | 313° |
| 2026-04-25 04:17 | 33.47217 | -117.68767 | 5966 ft | 109 kts | 313° |
| 2026-04-25 04:18 | 33.47760 | -117.69404 | 5967 ft | 109 kts | 313° |
| 2026-04-25 04:18 | 33.48306 | -117.70044 | 5965 ft | 109 kts | 313° |
| 2026-04-25 04:18 | 33.48847 | -117.70678 | 5966 ft | 109 kts | 313° |
| 2026-04-25 04:18 | 33.49392 | -117.71319 | 5959 ft | 109 kts | 313° |
| 2026-04-25 04:19 | 33.49935 | -117.71954 | 5962 ft | 109 kts | 313° |
| 2026-04-25 04:19 | 33.50482 | -117.72598 | 5959 ft | 109 kts | 313° |
| 2026-04-25 04:19 | 33.51022 | -117.73230 | 5959 ft | 109 kts | 313° |
| 2026-04-25 04:19 | 33.51566 | -117.73869 | 5958 ft | 108 kts | 313° |
| 2026-04-25 04:20 | 33.52103 | -117.74500 | 5961 ft | 109 kts | 313° |
| 2026-04-25 04:20 | 33.52643 | -117.75133 | 5962 ft | 109 kts | 313° |
| 2026-04-25 04:20 | 33.53191 | -117.75778 | 5962 ft | 109 kts | 313° |
| 2026-04-25 04:20 | 33.53732 | -117.76414 | 5962 ft | 109 kts | 313° |
| 2026-04-25 04:21 | 33.54279 | -117.77056 | 5960 ft | 109 kts | 313° |
| 2026-04-25 04:21 | 33.54817 | -117.77689 | 5961 ft | 108 kts | 313° |
| 2026-04-25 04:21 | 33.55364 | -117.78330 | 5963 ft | 109 kts | 313° |
| 2026-04-25 04:21 | 33.55903 | -117.78963 | 5964 ft | 108 kts | 313° |
| 2026-04-25 04:22 | 33.56443 | -117.79598 | 5959 ft | 109 kts | 313° |
| 2026-04-25 04:22 | 33.56994 | -117.80248 | 5958 ft | 110 kts | 313° |
| 2026-04-25 04:22 | 33.57538 | -117.80888 | 5959 ft | 110 kts | 314° |
| 2026-04-25 04:22 | 33.58089 | -117.81536 | 5961 ft | 110 kts | 313° |
| 2026-04-25 04:23 | 33.58631 | -117.82175 | 5961 ft | 110 kts | 313° |
| 2026-04-25 04:23 | 33.59181 | -117.82821 | 5961 ft | 110 kts | 313° |
| 2026-04-25 04:23 | 33.59724 | -117.83463 | 5963 ft | 109 kts | 313° |
| 2026-04-25 04:23 | 33.60165 | -117.83978 | 5963 ft | 109 kts | 313° |
| 2026-04-25 04:24 | 33.60708 | -117.84618 | 5970 ft | 109 kts | 313° |
| 2026-04-25 04:24 | 33.61252 | -117.85259 | 5969 ft | 109 kts | 313° |
| 2026-04-25 04:24 | 33.61791 | -117.85894 | 5970 ft | 109 kts | 313° |
| 2026-04-25 04:24 | 33.62336 | -117.86536 | 5969 ft | 110 kts | 313° |
| 2026-04-25 04:25 | 33.62887 | -117.87186 | 5969 ft | 109 kts | 313° |
| 2026-04-25 04:25 | 33.63434 | -117.87830 | 5968 ft | 109 kts | 313° |
| 2026-04-25 04:25 | 33.63974 | -117.88467 | 5973 ft | 109 kts | 313° |
| 2026-04-25 04:25 | 33.64517 | -117.89106 | 5969 ft | 109 kts | 313° |
| 2026-04-25 04:26 | 33.65058 | -117.89748 | 5970 ft | 110 kts | 313° |
| 2026-04-25 04:26 | 33.65609 | -117.90397 | 5968 ft | 110 kts | 313° |
| 2026-04-25 04:26 | 33.66156 | -117.91042 | 5967 ft | 110 kts | 314° |
| 2026-04-25 04:26 | 33.66701 | -117.91686 | 5965 ft | 110 kts | 313° |
| 2026-04-25 04:27 | 33.67249 | -117.92335 | 5965 ft | 110 kts | 313° |
| 2026-04-25 04:27 | 33.67797 | -117.92986 | 5964 ft | 110 kts | 313° |
| 2026-04-25 04:27 | 33.68348 | -117.93641 | 5963 ft | 111 kts | 314° |
| 2026-04-25 04:27 | 33.68894 | -117.94289 | 5962 ft | 111 kts | 314° |
| 2026-04-25 04:28 | 33.69453 | -117.94951 | 5962 ft | 111 kts | 313° |
| 2026-04-25 04:28 | 33.69996 | -117.95594 | 5963 ft | 111 kts | 314° |
| 2026-04-25 04:28 | 33.70549 | -117.96247 | 5965 ft | 110 kts | 313° |
| 2026-04-25 04:28 | 33.71101 | -117.96902 | 5963 ft | 111 kts | 313° |
| 2026-04-25 04:29 | 33.71650 | -117.97549 | 5963 ft | 111 kts | 313° |
| 2026-04-25 04:29 | 33.72201 | -117.98202 | 5961 ft | 111 kts | 314° |
| 2026-04-25 04:29 | 33.72750 | -117.98850 | 5961 ft | 110 kts | 313° |
| 2026-04-25 04:29 | 33.73300 | -117.99501 | 5959 ft | 110 kts | 313° |
| 2026-04-25 04:30 | 33.73851 | -118.00153 | 5960 ft | 110 kts | 313° |
| 2026-04-25 04:30 | 33.74394 | -118.00796 | 5959 ft | 110 kts | 313° |
| 2026-04-25 04:30 | 33.74938 | -118.01440 | 5961 ft | 110 kts | 314° |
| 2026-04-25 04:30 | 33.75494 | -118.02097 | 5962 ft | 110 kts | 313° |
| 2026-04-25 04:31 | 33.76043 | -118.02747 | 5960 ft | 111 kts | 314° |
| 2026-04-25 04:31 | 33.76594 | -118.03400 | 5956 ft | 111 kts | 314° |
| 2026-04-25 04:31 | 33.77144 | -118.04050 | 5956 ft | 111 kts | 313° |
| 2026-04-25 04:31 | 33.77697 | -118.04707 | 5958 ft | 111 kts | 314° |
| 2026-04-25 04:32 | 33.78239 | -118.05372 | 5958 ft | 111 kts | 307° |
| 2026-04-25 04:32 | 33.78640 | -118.05989 | 5959 ft | 111 kts | 311° |
| 2026-04-25 04:32 | 33.79163 | -118.06673 | 5957 ft | 110 kts | 311° |
| 2026-04-25 04:32 | 33.79664 | -118.07320 | 5924 ft | 102 kts | 312° |
| 2026-04-25 04:33 | 33.80147 | -118.07950 | 5794 ft | 101 kts | 311° |
| 2026-04-25 04:33 | 33.80619 | -118.08569 | 5675 ft | 100 kts | 312° |
| 2026-04-25 04:33 | 33.81094 | -118.09194 | 5550 ft | 100 kts | 311° |
| 2026-04-25 04:33 | 33.81558 | -118.09808 | 5426 ft | 100 kts | 311° |
| 2026-04-25 04:34 | 33.82025 | -118.10432 | 5301 ft | 100 kts | 311° |
| 2026-04-25 04:34 | 33.82482 | -118.11044 | 5179 ft | 99 kts | 311° |
| 2026-04-25 04:34 | 33.82943 | -118.11669 | 5055 ft | 99 kts | 311° |
| 2026-04-25 04:34 | 33.83402 | -118.12295 | 4930 ft | 99 kts | 311° |
| 2026-04-25 04:35 | 33.83857 | -118.12921 | 4805 ft | 100 kts | 311° |
| 2026-04-25 04:35 | 33.84312 | -118.13548 | 4681 ft | 100 kts | 311° |
| 2026-04-25 04:35 | 33.84769 | -118.14177 | 4559 ft | 100 kts | 311° |
| 2026-04-25 04:35 | 33.85226 | -118.14815 | 4434 ft | 102 kts | 311° |
| 2026-04-25 04:36 | 33.85697 | -118.15471 | 4286 ft | 104 kts | 312° |
| 2026-04-25 04:36 | 33.86169 | -118.16138 | 4114 ft | 105 kts | 312° |
| 2026-04-25 04:36 | 33.86644 | -118.16825 | 3938 ft | 105 kts | 312° |
| 2026-04-25 04:36 | 33.87108 | -118.17504 | 3765 ft | 106 kts | 312° |
| 2026-04-25 04:37 | 33.87574 | -118.18192 | 3591 ft | 106 kts | 311° |
| 2026-04-25 04:37 | 33.88036 | -118.18885 | 3417 ft | 106 kts | 311° |
| 2026-04-25 04:37 | 33.88497 | -118.19579 | 3242 ft | 106 kts | 311° |
| 2026-04-25 04:37 | 33.88949 | -118.20268 | 3069 ft | 106 kts | 311° |
| 2026-04-25 04:38 | 33.89415 | -118.20965 | 2893 ft | 106 kts | 311° |
| 2026-04-25 04:38 | 33.89887 | -118.21648 | 2719 ft | 106 kts | 311° |
| 2026-04-25 04:38 | 33.90366 | -118.22310 | 2548 ft | 106 kts | 311° |
| 2026-04-25 04:38 | 33.90867 | -118.22972 | 2374 ft | 107 kts | 311° |
| 2026-04-25 04:39 | 33.91380 | -118.23627 | 2201 ft | 107 kts | 311° |
| 2026-04-25 04:39 | 33.91904 | -118.24274 | 2027 ft | 107 kts | 312° |
| 2026-04-25 04:39 | 33.92424 | -118.24910 | 1850 ft | 106 kts | 311° |
| 2026-04-25 04:39 | 33.92902 | -118.25549 | 1774 ft | 94 kts | 301° |
| 2026-04-25 04:40 | 33.93272 | -118.26199 | 1723 ft | 92 kts | 297° |
| 2026-04-25 04:40 | 33.93620 | -118.26864 | 1672 ft | 97 kts | 296° |
| 2026-04-25 04:40 | 33.93940 | -118.27574 | 1595 ft | 96 kts | 291° |
| 2026-04-25 04:40 | 33.94225 | -118.28323 | 1505 ft | 99 kts | 288° |
| 2026-04-25 04:41 | 33.94454 | -118.29104 | 1441 ft | 98 kts | 281° |
| 2026-04-25 04:41 | 33.94573 | -118.29906 | 1411 ft | 95 kts | 268° |
| 2026-04-25 04:41 | 33.94552 | -118.30691 | 1382 ft | 93 kts | 261° |
| 2026-04-25 04:41 | 33.94478 | -118.31473 | 1306 ft | 95 kts | 259° |
| 2026-04-25 04:42 | 33.94455 | -118.31747 | 1273 ft | 97 kts | 261° |
| 2026-04-25 04:42 | 33.94415 | -118.32193 | 1216 ft | 98 kts | 260° |
| 2026-04-25 04:42 | 33.94318 | -118.32983 | 1099 ft | 93 kts | 258° |
| 2026-04-25 04:42 | 33.94219 | -118.33728 | 962 ft | 88 kts | 260° |
| 2026-04-25 04:43 | 33.94141 | -118.34450 | 793 ft | 86 kts | 261° |
| 2026-04-25 04:43 | 33.94066 | -118.35129 | 648 ft | 78 kts | 262° |
| 2026-04-25 04:43 | 33.94002 | -118.35750 | 532 ft | 70 kts | 262° |
| 2026-04-25 04:43 | 33.93949 | -118.36312 | 449 ft | 66 kts | 262° |
| 2026-04-25 04:44 | 33.93887 | -118.36842 | 385 ft | 58 kts | 261° |
| 2026-04-25 04:44 | 33.93838 | -118.37319 | 297 ft | 56 kts | 263° |
| 2026-04-25 04:44 | 33.93791 | -118.37785 | 239 ft | 57 kts | 260° |
| 2026-04-25 04:44 | 33.93736 | -118.38266 | 181 ft | 58 kts | 264° |
| 2026-04-25 04:45 | 33.93690 | -118.38731 | 108 ft | 54 kts | 263° |
| 2026-04-25 04:45 | 33.93651 | -118.39115 | 101 ft | 35 kts | 263° |
| 2026-04-25 04:45 | 33.93624 | -118.39287 | 102 ft | 12 kts | 258° |
| 2026-04-25 04:45 | 33.93602 | -118.39370 | 102 ft | 9 kts | 224° |
| 2026-04-25 04:46 | 33.93546 | -118.39378 | 102 ft | 8 kts | 180° |
| 2026-04-25 04:46 | 33.93496 | -118.39389 | 103 ft | 7 kts | 190° |
| 2026-04-25 04:46 | 33.93443 | -118.39394 | 103 ft | 7 kts | 179° |
| 2026-04-25 04:46 | 33.93407 | -118.39425 | 103 ft | 5 kts | 246° |
| 2026-04-25 04:47 | 33.93396 | -118.39462 | 104 ft | 4 kts | 247° |
| 2026-04-25 04:47 | 33.93386 | -118.39498 | 105 ft | 4 kts | 266° |
| 2026-04-25 04:47 | 33.93389 | -118.39529 | 105 ft | 0 kts | 326° |
| 2026-04-25 04:48 | 33.93392 | -118.39531 | 105 ft | 1 kts | 333° |
| 2026-04-25 04:48 | 33.93407 | -118.39524 | 105 ft | 3 kts | 85° |
| 2026-04-25 04:48 | 33.93383 | -118.39493 | 105 ft | 6 kts | 120° |
| 2026-04-25 04:48 | 33.93376 | -118.39456 | 104 ft | 1 kts | 87° |
| 2026-04-25 04:49 | 33.93376 | -118.39455 | 104 ft | 0 kts | 87° |